Flintstone, Georgia
Current Conditions -  °F | °C
As of 11:53 AM on Sunday 23 Nov 2014 (Local Time) from KCHA Reporting Station
Heavy Rain Heavy Rain  
Wind Chill: 47°   Ceiling: 300
Heat Index: 49°   Visibility: 1mi
Dew Point: 48°   Wind: 6mph
Humidity: 97%   Direction: 40°NE
Pressure: 29.88"   Gusts: NA
Location:  34.94°N, 85.34°W
Report Text: KCHA 231653Z 04005KT 1SM +RA BR BKN003 OVC009 09/09 A2988 RMK AO2 SFC VIS 1 1/2 SLP118 P0012 T00940089
Loading
Personal Weather Stations






























Interactive Weather Map New forecast layout! Learn more

10-Day Weather Forecast

Advertisements
Track Severe Weather on mobile